Massies Mill, Virginia
Current Conditions -  °F | °C
As of 3:55 AM on Wednesday 26 Nov 2014 (Local Time) from KW13 Reporting Station
Overcast Overcast  
Wind Chill: 34°   Ceiling: 3700
Heat Index: 38°   Visibility: 4mi
Dew Point: 37°   Wind: 6mph
Humidity: 97%   Direction: 330°NNW
Pressure: 30.01"   Gusts: NA
Location:  37.78°N, 79°W
Report Text: KW13 260855Z AUTO 33005KT 4SM OVC037 04/03 A3001 RMK AO1 P0009 60017 T00350030
Loading
Personal Weather Stations






























Interactive Weather Map New forecast layout! Learn more

10-Day Weather Forecast

Advertisements
Track Severe Weather on mobile